Main page
METAR-TAF:

METAR-TAF

Airports :

Molde Airport. Årø

Molde, Norway

latitude: 62-45N, longitude: 007-16E, elevation: 0 m

Current weather observation

The report was made 35 minutes ago, at 02:50 UTC
Wind 3 kt from the Northwest
Temperature 1°C
Humidity 93%
Pressure 976 hPa
Visibility 10 km or more

METAR: ENML 090250Z AUTO 32003KT 9999NDV FEW042/// 01/M00 Q0976

Time: 04:25 (03:25 UTC)

Forecast

The report was made 10 hours and 25 minutes ago, at 17:00 UTC
Forecast valid from 08 at 18 UTC to 08 at 23 UTC
Wind 8 kt from the North
Visibility 10 km or more
Scattered clouds at a height of 1000 ft
Broken clouds at a height of 2000 ft
light rain, snow
Probability 40% :
Temporary
from 08 at 18 UTC to 08 at 21 UTC
Broken clouds at a height of 1200 ft
rain
Becoming
from 08 at 21 UTC to 08 at 23 UTC
Wind 12 kt from the East/Northeast
Visibility: 2000 m
at a height of 1200 ft
snow, rain

TAF: ENML 081700Z 0818/0823 36008KT 9999 -RASN SCT010 BKN020 PROB40 TEMPO 0818/0821 RA BKN012 BECMG 0821/0823 06012KT 2000 SNRA VV012

Weather observations and forecasts of more than 4000 airports (METAR and TAF reports).

The available stations are represented by yellow and red dots on the map.

Hover mouse over dot to see the name of the station.

Then click to see weather observations and forecasts.

To change the map : click on the green buttons with a black cross to zoom in, on the green button with a dash to zoom out, or on the green arrows for adjacent maps.


METAR-TAF: